Terminal Aerodrome Forecast
Issued by NWS

Home | Current Version | Previous Version | Text Only | Print | Product List | Glossary On
Versions: 1 2 3 4 5 6 7 8 9 10 11 12 13 14 15 16 17 18 19 20 21 22 23 24 25 26 27 28 29 30 31 32 33 34 35 36 37 38 39 40 41 42 43 44 45 46 47 48 49 50
000
FTUS44 KHGX 221747
TAFCXO
TAF
KCXO 221747Z 2218/2318 13007KT P6SM BKN025 BKN035
     FM230400 14003KT P6SM OVC030
     FM230700 14002KT 5SM MIFG OVC004
     FM230900 00000KT 2SM BR OVC004
     FM231500 18003KT 5SM BR OVC007
     FM231700 25003KT P6SM OVC010=

USA.gov is the U.S. government's official web portal to all federal, state and local government web resources and services.